createdAt,value
2023-01-18T00:00:37.709Z,77.40
2023-01-18T00:03:04.843Z,77.40
2023-01-18T00:05:31.489Z,77.40
2023-01-18T00:08:00.613Z,77.40
2023-01-18T00:10:27.257Z,77.40
2023-01-18T00:12:54.274Z,77.40
2023-01-18T00:15:21.011Z,77.40
2023-01-18T00:17:47.784Z,77.40
2023-01-18T00:20:15.032Z,77.40
2023-01-18T00:22:41.631Z,77.40
2023-01-18T00:25:11.339Z,77.40
2023-01-18T00:27:38.018Z,77.40
2023-01-18T00:30:05.152Z,77.40
2023-01-18T00:32:32.531Z,77.40
2023-01-18T00:35:00.564Z,77.40
2023-01-18T00:37:29.407Z,77.40
2023-01-18T00:39:58.190Z,77.40
2023-01-18T00:42:43.454Z,77.40
2023-01-18T00:45:12.493Z,77.40
2023-01-18T00:47:41.193Z,77.40
2023-01-18T00:50:08.184Z,77.40
2023-01-18T00:52:34.834Z,77.40
2023-01-18T00:55:02.166Z,77.40
2023-01-18T00:57:29.000Z,77.40
2023-01-18T00:59:55.533Z,77.40
2023-01-18T01:02:22.438Z,77.40
2023-01-18T01:05:10.294Z,77.40
2023-01-18T01:07:37.114Z,77.40
2023-01-18T01:10:09.723Z,77.40
2023-01-18T01:12:55.625Z,77.40
2023-01-18T01:15:41.276Z,77.40
2023-01-18T01:18:27.114Z,77.40
2023-01-18T01:21:12.420Z,77.40
2023-01-18T01:23:58.403Z,77.40
2023-01-18T01:26:25.225Z,77.40
2023-01-18T01:28:52.567Z,77.40
2023-01-18T01:31:20.122Z,77.40
2023-01-18T01:33:49.465Z,77.40
2023-01-18T01:36:20.424Z,77.40
2023-01-18T01:38:47.371Z,77.40
2023-01-18T01:41:16.502Z,77.40
2023-01-18T01:43:51.080Z,77.40
2023-01-18T01:46:22.076Z,77.40
2023-01-18T01:48:49.153Z,77.40
2023-01-18T01:51:18.302Z,77.40
2023-01-18T01:53:48.502Z,77.40
2023-01-18T01:56:15.397Z,77.40
2023-01-18T01:58:42.758Z,77.40
2023-01-18T02:01:12.013Z,77.40
2023-01-18T02:03:40.410Z,77.40
2023-01-18T02:06:13.385Z,77.40
2023-01-18T02:08:40.120Z,77.40
2023-01-18T02:11:06.731Z,77.40
2023-01-18T02:13:33.286Z,77.40
2023-01-18T02:16:12.926Z,77.40
2023-01-18T02:18:48.506Z,77.40
2023-01-18T02:21:25.555Z,77.40
2023-01-18T02:23:54.924Z,77.40
2023-01-18T02:26:46.607Z,77.40
2023-01-18T02:29:22.898Z,77.40
2023-01-18T02:32:04.523Z,77.40
2023-01-18T02:34:36.678Z,77.40
2023-01-18T02:37:21.477Z,77.40
2023-01-18T02:39:56.875Z,77.40
2023-01-18T02:42:45.011Z,77.40
2023-01-18T02:45:43.630Z,77.40
2023-01-18T02:48:10.532Z,77.40
2023-01-18T02:50:37.156Z,77.40
2023-01-18T02:53:03.748Z,77.40
2023-01-18T02:55:41.910Z,77.40
2023-01-18T02:58:11.521Z,77.40
2023-01-18T03:00:40.228Z,77.40
2023-01-18T03:03:08.266Z,77.40
2023-01-18T03:05:35.765Z,77.40
2023-01-18T03:08:06.069Z,77.40
2023-01-18T03:10:38.046Z,77.40
2023-01-18T03:13:25.456Z,77.40
2023-01-18T03:15:53.647Z,77.40
2023-01-18T03:18:33.585Z,77.40
2023-01-18T03:21:05.426Z,77.40
2023-01-18T03:23:42.585Z,77.40
2023-01-18T03:26:10.813Z,77.40
2023-01-18T03:28:58.369Z,77.40
2023-01-18T03:31:49.892Z,77.40
2023-01-18T03:34:30.380Z,77.40
2023-01-18T03:36:58.880Z,77.40
2023-01-18T03:39:36.666Z,77.40
2023-01-18T03:42:08.391Z,77.40
2023-01-18T03:44:34.955Z,77.40
2023-01-18T03:47:04.936Z,77.40
2023-01-18T03:49:32.425Z,77.40
2023-01-18T03:51:58.972Z,77.40
2023-01-18T03:54:25.517Z,77.40
2023-01-18T03:57:03.254Z,77.40
2023-01-18T03:59:32.404Z,77.40
2023-01-18T04:01:59.059Z,77.40
2023-01-18T04:04:30.397Z,77.40
2023-01-18T04:06:57.926Z,77.40
2023-01-18T04:09:27.044Z,77.40
2023-01-18T04:11:53.681Z,77.40
2023-01-18T04:14:20.339Z,77.40
2023-01-18T04:16:49.346Z,77.40
2023-01-18T04:19:16.499Z,77.40
2023-01-18T04:21:43.066Z,77.40
2023-01-18T04:24:11.249Z,77.40
2023-01-18T04:26:38.534Z,77.40
2023-01-18T04:29:09.013Z,77.40
2023-01-18T04:31:37.792Z,77.40
2023-01-18T04:34:06.808Z,77.40
2023-01-18T04:36:33.399Z,77.40
2023-01-18T04:39:00.036Z,77.40
2023-01-18T04:41:29.200Z,77.40
2023-01-18T04:43:55.845Z,77.40
2023-01-18T04:46:22.436Z,77.40
2023-01-18T04:48:50.527Z,77.40
2023-01-18T04:51:17.741Z,77.40
2023-01-18T04:53:44.915Z,77.40
2023-01-18T04:56:11.819Z,77.40
2023-01-18T04:58:38.471Z,77.40
2023-01-18T05:01:06.591Z,77.40
2023-01-18T05:03:38.112Z,77.40
2023-01-18T05:06:06.079Z,77.40
2023-01-18T05:08:32.789Z,77.40
2023-01-18T05:11:06.228Z,77.40
2023-01-18T05:13:33.130Z,77.40
2023-01-18T05:16:06.112Z,77.40
2023-01-18T05:18:32.951Z,77.40
2023-01-18T05:20:59.598Z,77.40
2023-01-18T05:23:26.230Z,77.40
2023-01-18T05:25:56.504Z,77.40
2023-01-18T05:28:23.731Z,77.40
2023-01-18T05:30:51.278Z,77.40
2023-01-18T05:33:19.999Z,77.40
2023-01-18T05:35:52.072Z,77.40
2023-01-18T05:38:19.069Z,77.40
2023-01-18T05:40:50.065Z,77.40
2023-01-18T05:43:16.839Z,77.40
2023-01-18T05:45:43.670Z,77.40
2023-01-18T05:48:10.996Z,77.40
2023-01-18T05:50:43.816Z,77.40
2023-01-18T05:53:10.782Z,77.40
2023-01-18T05:55:37.348Z,77.40
2023-01-18T05:58:06.537Z,77.40
2023-01-18T06:00:35.764Z,77.40
2023-01-18T06:03:04.585Z,77.40
2023-01-18T06:05:31.517Z,77.40
2023-01-18T06:07:58.099Z,77.40
2023-01-18T06:10:24.641Z,77.40
2023-01-18T06:12:53.443Z,77.30
2023-01-18T06:15:22.194Z,77.20
2023-01-18T06:17:48.750Z,77.30
2023-01-18T06:20:18.112Z,77.20
2023-01-18T06:22:45.807Z,77.30
2023-01-18T06:25:12.493Z,77.30
2023-01-18T06:27:41.510Z,77.20
2023-01-18T06:30:10.918Z,76.90
2023-01-18T06:32:37.781Z,77.20
2023-01-18T06:35:04.539Z,77.10
2023-01-18T06:37:31.193Z,77.00
2023-01-18T06:39:57.821Z,77.20
2023-01-18T06:42:26.842Z,76.90
2023-01-18T06:44:53.391Z,76.90
2023-01-18T06:47:20.676Z,77.10
2023-01-18T06:49:50.227Z,77.00
2023-01-18T06:52:16.935Z,77.20
2023-01-18T06:54:48.162Z,76.90
2023-01-18T06:57:15.533Z,77.10
2023-01-18T06:59:42.072Z,77.20
2023-01-18T07:02:11.479Z,77.10
2023-01-18T07:04:43.976Z,77.10
2023-01-18T07:07:10.866Z,77.30
2023-01-18T07:09:39.947Z,77.30
2023-01-18T07:12:09.335Z,77.20
2023-01-18T07:14:35.959Z,77.10
2023-01-18T07:17:02.550Z,77.10
2023-01-18T07:19:29.479Z,77.00
2023-01-18T07:21:56.032Z,77.10
2023-01-18T07:24:28.746Z,77.10
2023-01-18T07:26:55.432Z,77.00
2023-01-18T07:29:22.223Z,77.00
2023-01-18T07:31:48.813Z,76.90
2023-01-18T07:34:15.448Z,77.00
2023-01-18T07:36:42.098Z,77.20
2023-01-18T07:39:13.815Z,77.10
2023-01-18T07:41:42.837Z,77.00
2023-01-18T07:44:10.596Z,76.80
2023-01-18T07:46:37.155Z,76.90
2023-01-18T07:49:05.741Z,76.70
2023-01-18T07:51:32.843Z,76.90
2023-01-18T07:54:02.052Z,76.80
2023-01-18T07:56:28.681Z,77.10
2023-01-18T07:58:55.678Z,76.90
2023-01-18T08:01:22.906Z,77.10
2023-01-18T08:03:53.525Z,77.10
2023-01-18T08:06:21.608Z,77.20
2023-01-18T08:08:48.156Z,77.20
2023-01-18T08:11:14.714Z,77.10
2023-01-18T08:13:43.501Z,76.90
2023-01-18T08:16:13.852Z,77.00
2023-01-18T08:18:40.454Z,77.10
2023-01-18T08:21:13.023Z,77.00
2023-01-18T08:23:42.083Z,76.90
2023-01-18T08:26:13.881Z,76.90
2023-01-18T08:28:41.571Z,77.00
2023-01-18T08:31:10.699Z,77.10
2023-01-18T08:33:38.495Z,77.10
2023-01-18T08:36:05.262Z,76.80
2023-01-18T08:38:31.866Z,76.90
2023-01-18T08:41:01.315Z,76.80
2023-01-18T08:43:30.163Z,76.90
2023-01-18T08:45:59.271Z,76.70
2023-01-18T08:48:26.015Z,76.60
2023-01-18T08:50:52.599Z,76.60
2023-01-18T08:53:19.240Z,76.60
2023-01-18T08:55:45.817Z,76.40
2023-01-18T08:58:12.622Z,76.30
2023-01-18T09:00:41.798Z,76.30
2023-01-18T09:03:08.430Z,75.70
2023-01-18T09:05:36.624Z,75.00
2023-01-18T09:08:03.334Z,75.10
2023-01-18T09:10:30.268Z,75.00
2023-01-18T09:12:57.292Z,74.60
2023-01-18T09:15:24.336Z,75.20
2023-01-18T09:17:52.742Z,75.00
2023-01-18T09:20:19.432Z,75.10
2023-01-18T09:22:48.307Z,75.10
2023-01-18T09:25:17.912Z,74.70
2023-01-18T09:27:46.506Z,74.60
2023-01-18T09:30:16.108Z,74.10
2023-01-18T09:32:42.796Z,74.10
2023-01-18T09:35:17.925Z,74.50
2023-01-18T09:37:47.764Z,74.20
2023-01-18T09:40:18.701Z,74.40
2023-01-18T09:42:45.889Z,73.70
2023-01-18T09:45:25.239Z,73.70
2023-01-18T09:47:55.452Z,73.70
2023-01-18T09:50:24.576Z,73.90
2023-01-18T09:52:57.953Z,73.80
2023-01-18T09:55:28.658Z,73.10
2023-01-18T09:57:58.018Z,72.50
2023-01-18T10:00:26.355Z,72.20
2023-01-18T10:02:55.576Z,71.80
2023-01-18T10:05:26.905Z,72.30
2023-01-18T10:08:04.671Z,73.00
2023-01-18T10:10:39.988Z,71.50
2023-01-18T10:13:06.523Z,71.90
2023-01-18T10:15:37.419Z,72.30
2023-01-18T10:18:03.959Z,72.10
2023-01-18T10:20:50.284Z,72.00
2023-01-18T10:23:39.202Z,72.00
2023-01-18T10:26:06.541Z,71.00
2023-01-18T10:28:48.826Z,71.70
2023-01-18T10:31:38.702Z,71.80
2023-01-18T10:34:16.334Z,70.80
2023-01-18T10:36:45.925Z,70.60
2023-01-18T10:39:27.925Z,70.80
2023-01-18T10:41:57.342Z,70.80
2023-01-18T10:44:23.981Z,71.30
2023-01-18T10:46:54.693Z,70.50
2023-01-18T10:49:41.250Z,70.30
2023-01-18T10:52:29.765Z,70.80
2023-01-18T10:55:09.238Z,69.50
2023-01-18T10:57:36.132Z,70.00
2023-01-18T11:00:12.312Z,70.00
2023-01-18T11:02:46.656Z,71.00
2023-01-18T11:05:29.462Z,69.80
2023-01-18T11:08:11.528Z,68.40
2023-01-18T11:10:41.647Z,69.40
2023-01-18T11:13:29.523Z,70.20
2023-01-18T11:16:12.726Z,69.50
2023-01-18T11:18:58.754Z,69.90
2023-01-18T11:21:26.184Z,68.10
2023-01-18T11:23:53.233Z,68.20
2023-01-18T11:26:21.689Z,68.40
2023-01-18T11:28:54.319Z,68.20
2023-01-18T11:31:23.110Z,67.40
2023-01-18T11:33:51.835Z,68.30
2023-01-18T11:36:19.703Z,67.80
2023-01-18T11:38:46.769Z,67.20
2023-01-18T11:41:19.100Z,68.20
2023-01-18T11:43:57.687Z,67.30
2023-01-18T11:46:43.821Z,67.20
2023-01-18T11:49:22.408Z,66.50
2023-01-18T11:51:57.735Z,66.30
2023-01-18T11:54:36.686Z,67.30
2023-01-18T11:57:03.911Z,66.30
2023-01-18T11:59:32.018Z,67.00
2023-01-18T12:02:18.779Z,65.90
2023-01-18T12:04:47.833Z,66.20
2023-01-18T12:07:23.506Z,65.90
2023-01-18T12:09:57.198Z,67.10
2023-01-18T12:12:32.061Z,65.70
2023-01-18T12:15:07.858Z,66.40
2023-01-18T12:17:46.063Z,65.90
2023-01-18T12:20:24.391Z,66.80
2023-01-18T12:22:54.129Z,66.30
2023-01-18T12:25:33.141Z,66.30
2023-01-18T12:28:20.000Z,67.20
2023-01-18T12:30:51.616Z,64.00
2023-01-18T12:33:43.375Z,66.10
2023-01-18T12:36:15.381Z,65.90
2023-01-18T12:38:48.656Z,66.50
2023-01-18T12:41:18.354Z,66.00
2023-01-18T12:43:44.904Z,64.70
2023-01-18T12:46:17.480Z,64.70
2023-01-18T12:48:51.339Z,64.80
2023-01-18T12:51:20.702Z,65.10
2023-01-18T12:54:02.435Z,64.10
2023-01-18T12:56:35.840Z,64.40
2023-01-18T12:59:05.452Z,65.00
2023-01-18T13:01:36.364Z,64.70
2023-01-18T13:04:09.680Z,63.00
2023-01-18T13:06:37.662Z,64.40
2023-01-18T13:09:06.912Z,64.30
2023-01-18T13:11:35.465Z,62.90
2023-01-18T13:14:07.042Z,63.20
2023-01-18T13:16:39.829Z,63.90
2023-01-18T13:19:10.850Z,64.70
2023-01-18T13:21:56.245Z,65.80
2023-01-18T13:24:28.702Z,61.20
2023-01-18T13:27:17.524Z,63.80
2023-01-18T13:29:47.983Z,63.90
2023-01-18T13:32:33.086Z,62.70
2023-01-18T13:35:19.720Z,63.50
2023-01-18T13:37:56.085Z,62.50
2023-01-18T13:40:25.542Z,63.30
2023-01-18T13:42:52.256Z,63.40
2023-01-18T13:45:23.157Z,63.50
2023-01-18T13:47:51.408Z,60.80
2023-01-18T13:50:23.803Z,61.90
2023-01-18T13:53:10.287Z,62.30
2023-01-18T13:55:36.926Z,61.70
2023-01-18T13:58:03.471Z,60.30
2023-01-18T14:00:31.016Z,62.90
2023-01-18T14:03:06.062Z,63.10
2023-01-18T14:05:42.229Z,62.80
2023-01-18T14:08:17.503Z,63.10
2023-01-18T14:10:47.911Z,64.10
2023-01-18T14:13:17.763Z,61.40
2023-01-18T14:15:54.498Z,62.80
2023-01-18T14:18:25.852Z,63.30
2023-01-18T14:20:55.141Z,61.20
2023-01-18T14:23:30.475Z,63.40
2023-01-18T14:26:02.390Z,61.80
2023-01-18T14:28:46.300Z,63.00
2023-01-18T14:31:17.257Z,63.50
2023-01-18T14:33:46.650Z,64.20
2023-01-18T14:36:24.414Z,62.00
2023-01-18T14:39:07.221Z,62.00
2023-01-18T14:41:34.295Z,64.00
2023-01-18T14:44:00.874Z,63.80
2023-01-18T14:46:27.994Z,65.00
2023-01-18T14:48:57.076Z,64.90
2023-01-18T14:51:24.900Z,62.70
2023-01-18T14:53:57.800Z,64.60
2023-01-18T14:56:25.888Z,63.20
2023-01-18T14:59:05.830Z,63.30
2023-01-18T15:01:34.901Z,64.30
2023-01-18T15:04:02.494Z,66.10
2023-01-18T15:06:29.033Z,63.50
2023-01-18T15:08:55.779Z,64.50
2023-01-18T15:11:23.954Z,64.60
2023-01-18T15:13:54.204Z,64.90
2023-01-18T15:16:32.676Z,64.50
2023-01-18T15:19:01.549Z,64.40
2023-01-18T15:21:32.627Z,65.40
2023-01-18T15:24:02.641Z,66.10
2023-01-18T15:26:44.544Z,65.40
2023-01-18T15:29:18.292Z,65.00
2023-01-18T15:31:55.723Z,66.00
2023-01-18T15:34:32.917Z,65.70
2023-01-18T15:37:00.697Z,66.40
2023-01-18T15:39:27.399Z,65.60
2023-01-18T15:41:56.811Z,66.40
2023-01-18T15:44:29.510Z,67.10
2023-01-18T15:46:56.240Z,66.80
2023-01-18T15:49:22.832Z,67.20
2023-01-18T15:51:57.026Z,67.20
2023-01-18T15:54:27.931Z,67.40
2023-01-18T15:56:58.775Z,67.50
2023-01-18T15:59:26.973Z,67.80
2023-01-18T16:02:04.365Z,67.50
2023-01-18T16:04:31.267Z,67.60
2023-01-18T16:06:58.469Z,68.90
2023-01-18T16:09:25.146Z,69.50
2023-01-18T16:11:54.022Z,68.30
2023-01-18T16:14:31.669Z,68.40
2023-01-18T16:17:02.139Z,68.90
2023-01-18T16:19:34.647Z,69.00
2023-01-18T16:22:02.939Z,69.30
2023-01-18T16:24:31.698Z,69.10
2023-01-18T16:27:00.244Z,69.30
2023-01-18T16:29:27.080Z,69.20
2023-01-18T16:32:13.732Z,69.20
2023-01-18T16:34:42.678Z,69.40
2023-01-18T16:37:11.746Z,69.30
2023-01-18T16:39:40.803Z,69.80
2023-01-18T16:42:11.573Z,70.00
2023-01-18T16:44:38.651Z,70.40
2023-01-18T16:47:11.868Z,70.70
2023-01-18T16:49:41.631Z,70.50
2023-01-18T16:52:12.675Z,70.50
2023-01-18T16:54:43.614Z,70.60
2023-01-18T16:57:17.595Z,70.80
2023-01-18T16:59:44.238Z,70.90
2023-01-18T17:02:11.415Z,70.90
2023-01-18T17:04:40.715Z,71.20
2023-01-18T17:07:10.857Z,71.10
2023-01-18T17:09:48.491Z,71.60
2023-01-18T17:12:18.980Z,71.40
2023-01-18T17:14:45.615Z,71.10
2023-01-18T17:17:12.315Z,71.20
2023-01-18T17:19:40.567Z,71.50
2023-01-18T17:22:07.148Z,71.80
2023-01-18T17:24:33.900Z,72.00
2023-01-18T17:27:01.264Z,72.40
2023-01-18T17:29:28.134Z,72.20
2023-01-18T17:31:54.854Z,72.60
2023-01-18T17:34:27.402Z,72.10
2023-01-18T17:36:55.187Z,72.30
2023-01-18T17:39:22.973Z,72.40
2023-01-18T17:41:49.600Z,72.50
2023-01-18T17:44:16.148Z,72.50
2023-01-18T17:46:42.856Z,72.90
2023-01-18T17:49:09.542Z,72.90
2023-01-18T17:51:38.566Z,73.00
2023-01-18T17:54:10.235Z,73.00
2023-01-18T17:56:39.646Z,73.10
2023-01-18T17:59:10.291Z,73.40
2023-01-18T18:01:36.921Z,73.50
2023-01-18T18:04:03.818Z,73.40
2023-01-18T18:06:33.770Z,73.50
2023-01-18T18:09:01.960Z,73.50
2023-01-18T18:11:28.655Z,73.50
2023-01-18T18:13:58.866Z,73.80
2023-01-18T18:16:27.821Z,74.00
2023-01-18T18:18:54.439Z,73.90
2023-01-18T18:21:23.189Z,74.00
2023-01-18T18:23:50.549Z,74.00
2023-01-18T18:26:19.077Z,74.00
2023-01-18T18:28:45.686Z,73.80
2023-01-18T18:31:16.210Z,73.80
2023-01-18T18:33:42.825Z,74.40
2023-01-18T18:36:09.458Z,74.30
2023-01-18T18:38:46.056Z,74.30
2023-01-18T18:41:15.148Z,74.20
2023-01-18T18:43:41.816Z,74.40
2023-01-18T18:46:08.504Z,74.70
2023-01-18T18:48:35.198Z,74.70
2023-01-18T18:51:01.772Z,74.80
2023-01-18T18:53:38.537Z,74.70
2023-01-18T18:56:10.071Z,74.60
2023-01-18T18:58:37.384Z,74.70
2023-01-18T19:01:05.225Z,75.10
2023-01-18T19:03:34.506Z,74.60
2023-01-18T19:06:01.099Z,74.80
2023-01-18T19:08:27.726Z,74.60
2023-01-18T19:10:54.527Z,74.40
2023-01-18T19:13:21.200Z,74.80
2023-01-18T19:15:48.414Z,75.20
2023-01-18T19:18:15.443Z,75.50
2023-01-18T19:20:42.032Z,75.30
2023-01-18T19:23:11.564Z,75.20
2023-01-18T19:25:38.773Z,75.00
2023-01-18T19:28:05.443Z,75.20
2023-01-18T19:30:33.330Z,75.60
2023-01-18T19:33:00.656Z,75.60
2023-01-18T19:35:27.303Z,75.70
2023-01-18T19:37:54.442Z,76.20
2023-01-18T19:40:21.553Z,76.10
2023-01-18T19:42:54.599Z,76.00
2023-01-18T19:45:28.280Z,75.80
2023-01-18T19:47:58.493Z,75.40
2023-01-18T19:50:30.800Z,75.60
2023-01-18T19:52:58.110Z,76.10
2023-01-18T19:55:25.326Z,76.10
2023-01-18T19:57:54.477Z,76.10
2023-01-18T20:00:21.238Z,75.80
2023-01-18T20:02:48.124Z,76.10
2023-01-18T20:05:14.795Z,76.20
2023-01-18T20:07:41.331Z,76.10
2023-01-18T20:10:08.175Z,75.70
2023-01-18T20:12:34.978Z,75.60
2023-01-18T20:15:01.712Z,76.20
2023-01-18T20:17:28.277Z,76.00
2023-01-18T20:19:54.854Z,76.20
2023-01-18T20:22:23.971Z,76.40
2023-01-18T20:24:50.549Z,76.20
2023-01-18T20:27:19.691Z,75.80
2023-01-18T20:29:46.540Z,76.20
2023-01-18T20:32:17.778Z,76.50
2023-01-18T20:34:46.444Z,76.40
2023-01-18T20:37:13.468Z,76.50
2023-01-18T20:39:40.091Z,76.60
2023-01-18T20:42:06.659Z,76.50
2023-01-18T20:44:35.940Z,76.60
2023-01-18T20:47:02.563Z,76.60
2023-01-18T20:49:37.653Z,77.00
2023-01-18T20:52:05.140Z,77.20
2023-01-18T20:54:31.804Z,77.30
2023-01-18T20:57:06.166Z,77.30
2023-01-18T20:59:33.009Z,77.30
2023-01-18T21:02:02.561Z,77.40
2023-01-18T21:04:29.218Z,77.40
2023-01-18T21:06:57.217Z,77.40
2023-01-18T21:09:24.249Z,77.40
2023-01-18T21:11:51.098Z,77.30
2023-01-18T21:14:20.386Z,77.40
2023-01-18T21:16:47.140Z,77.40
2023-01-18T21:19:13.802Z,77.30
2023-01-18T21:21:43.077Z,77.30
2023-01-18T21:24:09.644Z,77.20
2023-01-18T21:26:38.438Z,77.20
2023-01-18T21:29:09.501Z,77.20
2023-01-18T21:31:40.143Z,77.30
2023-01-18T21:34:07.648Z,77.30
2023-01-18T21:36:34.348Z,77.20
2023-01-18T21:39:00.964Z,77.30
2023-01-18T21:41:46.397Z,77.40
2023-01-18T21:44:34.122Z,77.40
2023-01-18T21:47:01.020Z,77.30
2023-01-18T21:50:15.415Z,77.30
2023-01-18T21:52:55.818Z,77.40
2023-01-18T21:55:25.338Z,77.40
2023-01-18T21:58:10.765Z,77.40
2023-01-18T22:00:38.168Z,77.40
2023-01-18T22:03:04.886Z,77.40
2023-01-18T22:05:31.552Z,77.40
2023-01-18T22:07:58.467Z,77.40
2023-01-18T22:10:25.270Z,77.40
2023-01-18T22:12:54.329Z,77.40
2023-01-18T22:15:23.125Z,77.40
2023-01-18T22:17:49.722Z,77.40
2023-01-18T22:20:16.594Z,77.40
2023-01-18T22:22:43.140Z,77.40
2023-01-18T22:25:12.294Z,77.40
2023-01-18T22:27:38.828Z,77.40
2023-01-18T22:30:05.989Z,77.40
2023-01-18T22:32:33.527Z,77.40
2023-01-18T22:35:00.086Z,77.40
2023-01-18T22:37:27.630Z,77.40
2023-01-18T22:39:57.355Z,77.40
2023-01-18T22:42:27.445Z,77.40
2023-01-18T22:44:54.007Z,77.40
2023-01-18T22:47:20.767Z,77.40
2023-01-18T22:49:47.378Z,77.40
2023-01-18T22:52:14.004Z,77.40
2023-01-18T22:54:41.579Z,77.40
2023-01-18T22:57:10.442Z,77.40
2023-01-18T22:59:37.019Z,77.40
2023-01-18T23:02:03.656Z,77.40
2023-01-18T23:04:31.348Z,77.40
2023-01-18T23:07:00.744Z,77.40
2023-01-18T23:09:27.559Z,77.40
2023-01-18T23:11:59.125Z,77.40
2023-01-18T23:14:45.662Z,77.40
2023-01-18T23:17:30.727Z,77.40
2023-01-18T23:19:59.874Z,77.40
2023-01-18T23:22:26.632Z,77.40
2023-01-18T23:24:53.395Z,77.40
2023-01-18T23:27:19.982Z,77.40
2023-01-18T23:29:57.204Z,77.40
2023-01-18T23:32:27.791Z,77.40
2023-01-18T23:34:55.328Z,77.40
2023-01-18T23:37:22.226Z,77.40
2023-01-18T23:40:07.547Z,77.40
2023-01-18T23:42:52.830Z,77.40
2023-01-18T23:45:37.889Z,77.40
2023-01-18T23:48:26.830Z,77.40
2023-01-18T23:51:12.077Z,77.40
2023-01-18T23:53:57.153Z,77.40
2023-01-18T23:56:23.959Z,77.40
2023-01-18T23:58:50.498Z,77.40
